createdAt,value
2023-05-01T00:01:52.631Z,11.27
2023-05-01T00:04:19.709Z,11.20
2023-05-01T00:06:47.181Z,11.00
2023-05-01T00:09:14.286Z,10.73
2023-05-01T00:11:41.284Z,10.58
2023-05-01T00:14:08.285Z,10.48
2023-05-01T00:16:36.848Z,10.40
2023-05-01T00:19:05.200Z,10.30
2023-05-01T00:21:32.287Z,10.27
2023-05-01T00:23:59.219Z,10.28
2023-05-01T00:26:30.639Z,10.15
2023-05-01T00:28:58.535Z,10.05
2023-05-01T00:31:26.203Z,9.92
2023-05-01T00:33:53.485Z,9.99
2023-05-01T00:36:20.896Z,9.88
2023-05-01T00:38:48.055Z,9.97
2023-05-01T00:41:15.077Z,9.95
2023-05-01T00:43:44.253Z,10.12
2023-05-01T00:46:11.560Z,10.21
2023-05-01T00:48:38.708Z,10.21
2023-05-01T00:51:08.204Z,10.17
2023-05-01T00:53:35.668Z,10.07
2023-05-01T00:56:04.441Z,10.24
2023-05-01T00:58:31.754Z,10.11
2023-05-01T01:00:58.865Z,10.06
2023-05-01T01:03:25.951Z,9.86
2023-05-01T01:06:09.842Z,9.71
2023-05-01T01:09:16.007Z,9.78
2023-05-01T01:12:01.002Z,9.91
2023-05-01T01:14:35.245Z,9.98
2023-05-01T01:17:19.546Z,9.95
2023-05-01T01:20:19.532Z,10.04
2023-05-01T01:22:53.618Z,10.05
2023-05-01T01:25:48.214Z,10.09
2023-05-01T01:28:49.191Z,10.01
2023-05-01T01:31:46.028Z,10.03
2023-05-01T01:34:44.136Z,9.77
2023-05-01T01:37:48.149Z,9.80
2023-05-01T01:40:19.318Z,9.96
2023-05-01T01:46:01.008Z,9.80
2023-05-01T01:48:33.709Z,9.65
2023-05-01T01:51:06.680Z,9.60
2023-05-01T01:53:35.628Z,9.71
2023-05-01T01:56:04.769Z,9.83
2023-05-01T01:58:32.498Z,9.85
2023-05-01T02:01:00.888Z,9.89
2023-05-01T02:03:29.580Z,9.97
2023-05-01T02:05:58.768Z,9.88
2023-05-01T02:08:28.696Z,9.60
2023-05-01T02:11:01.124Z,9.43
2023-05-01T02:13:31.609Z,9.62
2023-05-01T02:16:00.912Z,9.71
2023-05-01T02:18:33.832Z,9.64
2023-05-01T02:21:02.341Z,9.68
2023-05-01T02:23:31.382Z,9.79
2023-05-01T02:26:01.000Z,9.81
2023-05-01T02:28:30.105Z,9.69
2023-05-01T02:30:57.622Z,9.55
2023-05-01T02:33:24.585Z,9.65
2023-05-01T02:35:51.638Z,9.72
2023-05-01T02:38:19.318Z,9.60
2023-05-01T02:40:53.829Z,9.38
2023-05-01T02:43:23.011Z,9.36
2023-05-01T02:45:52.447Z,9.32
2023-05-01T02:48:24.037Z,9.24
2023-05-01T02:50:52.700Z,9.25
2023-05-01T02:53:20.625Z,9.34
2023-05-01T02:55:55.828Z,9.64
2023-05-01T02:58:23.713Z,9.64
2023-05-01T03:00:50.770Z,9.62
2023-05-01T03:03:19.422Z,9.58
2023-05-01T03:05:46.463Z,9.78
2023-05-01T03:08:13.751Z,9.70
2023-05-01T03:10:42.893Z,9.72
2023-05-01T03:13:11.153Z,9.66
2023-05-01T03:15:38.860Z,9.64
2023-05-01T03:18:06.875Z,9.52
2023-05-01T03:20:34.327Z,9.24
2023-05-01T03:23:02.523Z,9.28
2023-05-01T03:25:30.078Z,9.18
2023-05-01T03:27:57.193Z,9.11
2023-05-01T03:30:24.606Z,8.95
2023-05-01T03:32:52.909Z,8.94
2023-05-01T03:35:26.455Z,8.98
2023-05-01T03:37:53.966Z,8.91
2023-05-01T03:40:43.722Z,8.94
2023-05-01T03:43:29.438Z,8.97
2023-05-01T03:45:58.774Z,8.98
2023-05-01T03:48:26.245Z,9.09
2023-05-01T03:50:53.344Z,9.33
2023-05-01T03:53:20.489Z,9.51
2023-05-01T03:55:47.706Z,9.32
2023-05-01T03:58:14.888Z,9.28
2023-05-01T04:00:42.016Z,9.25
2023-05-01T04:03:09.583Z,9.33
2023-05-01T04:05:38.809Z,9.61
2023-05-01T04:08:06.270Z,9.65
2023-05-01T04:10:33.429Z,9.68
2023-05-01T04:13:05.142Z,9.88
2023-05-01T04:15:32.735Z,10.15
2023-05-01T04:17:59.930Z,10.29
2023-05-01T04:20:27.165Z,10.62
2023-05-01T04:23:00.908Z,10.86
2023-05-01T04:25:28.284Z,11.06
2023-05-01T04:28:01.758Z,11.30
2023-05-01T04:30:30.891Z,11.36
2023-05-01T04:33:00.752Z,11.46
2023-05-01T04:35:27.699Z,11.79
2023-05-01T04:37:54.652Z,12.19
2023-05-01T04:40:21.637Z,12.84
2023-05-01T04:42:49.054Z,13.90
2023-05-01T04:45:16.522Z,14.55
2023-05-01T04:47:44.117Z,14.53
2023-05-01T04:50:11.861Z,15.01
2023-05-01T04:52:38.989Z,15.78
2023-05-01T04:55:06.551Z,16.14
2023-05-01T04:57:37.378Z,16.49
2023-05-01T05:00:08.224Z,15.59
2023-05-01T05:02:45.588Z,14.85
2023-05-01T05:05:14.053Z,14.45
2023-05-01T05:07:41.569Z,14.16
2023-05-01T05:10:44.047Z,14.01
2023-05-01T05:13:20.827Z,13.86
2023-05-01T05:15:55.015Z,13.56
2023-05-01T05:18:23.951Z,13.69
2023-05-01T05:20:51.528Z,13.66
2023-05-01T05:23:18.733Z,13.64
2023-05-01T05:25:45.652Z,13.59
2023-05-01T05:28:12.801Z,13.46
2023-05-01T05:30:40.334Z,13.30
2023-05-01T05:33:13.627Z,13.35
2023-05-01T05:35:41.261Z,13.25
2023-05-01T05:38:08.611Z,12.86
2023-05-01T05:40:38.217Z,13.13
2023-05-01T05:43:05.439Z,13.34
2023-05-01T05:45:35.806Z,13.42
2023-05-01T05:48:03.571Z,13.80
2023-05-01T05:50:33.514Z,14.29
2023-05-01T05:53:00.904Z,14.67
2023-05-01T05:55:28.443Z,15.16
2023-05-01T05:58:03.438Z,15.22
2023-05-01T06:00:30.921Z,15.18
2023-05-01T06:03:02.918Z,15.45
2023-05-01T06:05:31.920Z,15.14
2023-05-01T06:07:58.872Z,15.36
2023-05-01T06:10:26.074Z,15.42
2023-05-01T06:12:59.472Z,15.52
2023-05-01T06:15:31.170Z,15.15
2023-05-01T06:17:58.317Z,14.75
2023-05-01T06:20:25.353Z,14.99
2023-05-01T06:22:52.838Z,15.41
2023-05-01T06:25:29.043Z,15.69
2023-05-01T06:27:56.504Z,15.62
2023-05-01T06:30:24.444Z,15.58
2023-05-01T06:32:51.566Z,15.58
2023-05-01T06:35:19.526Z,15.26
2023-05-01T06:37:46.521Z,15.56
2023-05-01T06:40:13.694Z,15.29
2023-05-01T06:42:42.354Z,15.54
2023-05-01T06:45:09.622Z,15.42
2023-05-01T06:47:37.151Z,15.72
2023-05-01T06:50:05.848Z,15.94
2023-05-01T06:52:33.899Z,15.70
2023-05-01T06:55:01.559Z,15.22
2023-05-01T06:57:28.550Z,14.85
2023-05-01T06:59:55.837Z,14.88
2023-05-01T07:02:23.106Z,14.73
2023-05-01T07:04:50.139Z,14.97
2023-05-01T07:07:17.112Z,15.24
2023-05-01T07:09:44.050Z,15.45
2023-05-01T07:12:11.215Z,15.49
2023-05-01T07:14:38.179Z,15.50
2023-05-01T07:17:06.064Z,15.44
2023-05-01T07:19:32.997Z,15.45
2023-05-01T07:22:07.908Z,15.32
2023-05-01T07:24:34.842Z,15.24
2023-05-01T07:27:01.814Z,15.43
2023-05-01T07:29:28.806Z,15.52
2023-05-01T07:31:56.071Z,15.71
2023-05-01T07:34:23.074Z,15.87
2023-05-01T07:36:50.224Z,16.11
2023-05-01T07:39:18.074Z,16.57
2023-05-01T07:41:45.065Z,16.38
2023-05-01T07:44:11.987Z,17.11
2023-05-01T07:46:39.082Z,16.55
2023-05-01T07:49:06.027Z,17.23
2023-05-01T07:51:32.980Z,16.79
2023-05-01T07:54:04.872Z,16.29
2023-05-01T07:56:32.080Z,16.17
2023-05-01T07:58:59.137Z,16.25
2023-05-01T08:01:26.380Z,16.81
2023-05-01T08:03:53.943Z,17.31
2023-05-01T08:06:21.131Z,17.08
2023-05-01T08:08:48.141Z,17.53
2023-05-01T08:11:15.127Z,17.60
2023-05-01T08:13:42.081Z,17.41
2023-05-01T08:16:09.400Z,17.48
2023-05-01T08:18:36.380Z,17.38
2023-05-01T08:21:03.777Z,17.35
2023-05-01T08:23:30.897Z,17.37
2023-05-01T08:26:01.045Z,17.33
2023-05-01T08:28:28.209Z,17.08
2023-05-01T08:30:55.189Z,17.04
2023-05-01T08:33:22.186Z,17.01
2023-05-01T08:35:49.615Z,17.18
2023-05-01T08:38:16.575Z,17.16
2023-05-01T08:40:52.937Z,17.20
2023-05-01T08:43:20.578Z,16.87
2023-05-01T08:45:48.635Z,17.12
2023-05-01T08:48:18.923Z,17.19
2023-05-01T08:50:47.253Z,17.22
2023-05-01T08:53:17.466Z,17.32
2023-05-01T08:55:48.807Z,17.11
2023-05-01T08:58:18.849Z,17.07
2023-05-01T09:00:47.056Z,17.64
2023-05-01T09:03:14.559Z,17.77
2023-05-01T09:05:41.675Z,17.98
2023-05-01T09:08:08.664Z,17.81
2023-05-01T09:10:43.056Z,17.67
2023-05-01T09:13:10.370Z,17.50
2023-05-01T09:15:37.387Z,17.82
2023-05-01T09:18:04.647Z,18.40
2023-05-01T09:20:32.715Z,18.56
2023-05-01T09:23:00.798Z,18.83
2023-05-01T09:25:28.073Z,18.59
2023-05-01T09:27:56.972Z,18.69
2023-05-01T09:30:38.369Z,18.90
2023-05-01T09:33:13.723Z,19.31
2023-05-01T09:35:54.454Z,19.30
2023-05-01T09:38:29.348Z,19.59
2023-05-01T09:41:03.671Z,19.84
2023-05-01T09:43:31.819Z,19.49
2023-05-01T09:46:07.524Z,19.35
2023-05-01T09:48:36.059Z,19.25
2023-05-01T09:51:30.321Z,19.90
2023-05-01T09:53:59.511Z,20.37
2023-05-01T09:56:32.456Z,20.29
2023-05-01T09:59:15.013Z,20.45
2023-05-01T10:01:44.546Z,21.34
2023-05-01T10:04:11.861Z,21.09
2023-05-01T10:06:39.631Z,20.76
2023-05-01T10:09:16.823Z,20.84
2023-05-01T10:11:56.348Z,20.86
2023-05-01T10:14:28.435Z,20.77
2023-05-01T10:16:58.239Z,20.22
2023-05-01T10:19:25.826Z,19.80
2023-05-01T10:21:53.690Z,19.53
2023-05-01T10:24:21.054Z,19.76
2023-05-01T10:26:49.447Z,19.82
2023-05-01T10:29:17.661Z,19.90
2023-05-01T10:31:44.538Z,20.40
2023-05-01T10:34:18.783Z,20.52
2023-05-01T10:36:51.623Z,20.84
2023-05-01T10:39:35.649Z,20.50
2023-05-01T10:42:08.739Z,20.37
2023-05-01T10:44:35.812Z,20.15
2023-05-01T10:47:34.994Z,20.35
2023-05-01T10:50:16.172Z,20.54
2023-05-01T10:53:14.775Z,20.32
2023-05-01T10:55:44.224Z,20.50
2023-05-01T10:58:12.056Z,20.38
2023-05-01T11:00:39.119Z,20.03
2023-05-01T11:03:21.322Z,20.06
2023-05-01T11:06:00.450Z,20.61
2023-05-01T11:08:32.297Z,20.23
2023-05-01T11:11:22.376Z,20.02
2023-05-01T11:13:58.633Z,20.17
2023-05-01T11:16:35.612Z,20.46
2023-05-01T11:19:02.659Z,20.18
2023-05-01T11:21:34.334Z,20.15
2023-05-01T11:24:01.929Z,20.37
2023-05-01T11:26:31.866Z,20.00
2023-05-01T11:29:01.580Z,20.76
2023-05-01T11:31:29.372Z,20.83
2023-05-01T11:33:57.548Z,20.76
2023-05-01T11:36:25.230Z,20.42
2023-05-01T11:39:02.532Z,20.15
2023-05-01T11:41:29.910Z,20.79
2023-05-01T11:43:59.600Z,21.30
2023-05-01T11:46:28.476Z,21.08
2023-05-01T11:48:57.044Z,21.05
2023-05-01T11:51:25.171Z,21.64
2023-05-01T11:54:08.154Z,21.92
2023-05-01T11:56:36.803Z,21.50
2023-05-01T11:59:12.434Z,21.56
2023-05-01T12:01:41.476Z,21.81
2023-05-01T12:04:09.079Z,22.28
2023-05-01T12:06:45.155Z,23.07
2023-05-01T12:09:19.678Z,22.38
2023-05-01T12:11:50.561Z,21.69
2023-05-01T12:14:19.872Z,21.02
2023-05-01T12:16:47.369Z,20.92
2023-05-01T12:19:15.928Z,21.04
2023-05-01T12:21:42.942Z,21.28
2023-05-01T12:24:18.549Z,21.31
2023-05-01T12:26:46.592Z,21.58
2023-05-01T12:29:13.971Z,21.83
2023-05-01T12:31:50.189Z,21.38
2023-05-01T12:34:18.409Z,21.59
2023-05-01T12:36:54.161Z,20.92
2023-05-01T12:39:23.720Z,20.92
2023-05-01T12:41:51.258Z,21.18
2023-05-01T12:44:19.518Z,21.48
2023-05-01T12:46:56.540Z,21.70
2023-05-01T12:49:24.304Z,21.68
2023-05-01T12:51:53.132Z,21.91
2023-05-01T12:54:35.249Z,22.64
2023-05-01T12:57:18.241Z,22.37
2023-05-01T12:59:46.633Z,21.44
2023-05-01T13:02:17.434Z,21.33
2023-05-01T13:04:45.453Z,21.74
2023-05-01T13:07:17.145Z,22.32
2023-05-01T13:09:54.857Z,22.83
2023-05-01T13:12:23.730Z,22.44
2023-05-01T13:14:51.168Z,21.89
2023-05-01T13:17:31.665Z,22.13
2023-05-01T13:20:05.483Z,22.59
2023-05-01T13:22:36.882Z,23.65
2023-05-01T13:25:17.654Z,23.29
2023-05-01T13:27:50.042Z,23.40
2023-05-01T13:30:22.101Z,23.38
2023-05-01T13:32:49.888Z,23.34
2023-05-01T13:35:27.707Z,22.75
2023-05-01T13:37:55.425Z,22.52
2023-05-01T13:40:24.942Z,22.08
2023-05-01T13:42:52.953Z,21.72
2023-05-01T13:45:23.616Z,22.09
2023-05-01T13:47:52.242Z,22.38
2023-05-01T13:50:19.450Z,22.52
2023-05-01T13:52:46.979Z,22.31
2023-05-01T13:55:14.440Z,22.55
2023-05-01T13:57:42.579Z,22.76
2023-05-01T14:00:18.016Z,22.27
2023-05-01T14:02:48.818Z,22.06
2023-05-01T14:05:17.056Z,22.08
2023-05-01T14:07:55.446Z,21.97
2023-05-01T14:10:24.254Z,21.63
2023-05-01T14:12:51.464Z,21.40
2023-05-01T14:15:18.478Z,21.38
2023-05-01T14:17:45.543Z,21.44
2023-05-01T14:20:12.679Z,21.57
2023-05-01T14:22:44.114Z,21.58
2023-05-01T14:25:24.679Z,21.45
2023-05-01T14:27:52.919Z,21.17
2023-05-01T14:30:27.914Z,21.09
2023-05-01T14:32:56.277Z,21.02
2023-05-01T14:35:24.817Z,21.38
2023-05-01T14:37:51.874Z,21.74
2023-05-01T14:40:27.301Z,21.48
2023-05-01T14:42:55.554Z,21.29
2023-05-01T14:45:22.516Z,21.46
2023-05-01T14:47:50.340Z,21.79
2023-05-01T14:50:22.397Z,21.58
2023-05-01T14:52:56.650Z,21.95
2023-05-01T14:55:34.926Z,21.95
2023-05-01T14:58:02.229Z,22.29
2023-05-01T15:00:29.172Z,22.56
2023-05-01T15:02:58.744Z,22.08
2023-05-01T15:05:26.461Z,21.56
2023-05-01T15:08:00.867Z,21.54
2023-05-01T15:10:29.133Z,21.47
2023-05-01T15:12:56.135Z,21.44
2023-05-01T15:15:23.207Z,21.49
2023-05-01T15:17:50.291Z,21.32
2023-05-01T15:20:17.537Z,21.46
2023-05-01T15:22:44.457Z,21.49
2023-05-01T15:25:12.014Z,21.67
2023-05-01T15:27:39.067Z,22.05
2023-05-01T15:30:06.690Z,21.95
2023-05-01T15:32:33.672Z,21.74
2023-05-01T15:35:00.885Z,21.60
2023-05-01T15:37:27.940Z,21.43
2023-05-01T15:39:54.913Z,21.16
2023-05-01T15:42:22.001Z,20.95
2023-05-01T15:44:49.193Z,21.05
2023-05-01T15:47:16.566Z,21.16
2023-05-01T15:49:43.561Z,21.36
2023-05-01T15:52:11.606Z,21.49
2023-05-01T15:54:38.602Z,21.49
2023-05-01T15:57:07.854Z,21.01
2023-05-01T15:59:34.828Z,21.14
2023-05-01T16:02:02.445Z,21.21
2023-05-01T16:04:29.561Z,21.06
2023-05-01T16:06:56.635Z,20.83
2023-05-01T16:09:32.040Z,20.76
2023-05-01T16:12:01.875Z,20.60
2023-05-01T16:14:28.897Z,20.67
2023-05-01T16:16:56.110Z,20.62
2023-05-01T16:19:23.293Z,20.70
2023-05-01T16:21:50.254Z,20.77
2023-05-01T16:24:17.309Z,20.76
2023-05-01T16:26:44.547Z,20.71
2023-05-01T16:29:12.145Z,20.73
2023-05-01T16:31:41.269Z,20.59
2023-05-01T16:34:11.908Z,20.54
2023-05-01T16:36:46.702Z,20.67
2023-05-01T16:39:15.820Z,20.56
2023-05-01T16:41:46.512Z,20.50
2023-05-01T16:44:14.234Z,20.30
2023-05-01T16:46:42.620Z,20.30
2023-05-01T16:49:15.923Z,20.27
2023-05-01T16:51:42.934Z,20.23
2023-05-01T16:54:10.125Z,20.19
2023-05-01T16:56:37.470Z,20.09
2023-05-01T16:59:04.565Z,20.12
2023-05-01T17:01:31.668Z,20.10
2023-05-01T17:03:58.689Z,20.08
2023-05-01T17:06:25.880Z,20.03
2023-05-01T17:08:53.879Z,19.99
2023-05-01T17:11:21.663Z,19.93
2023-05-01T17:13:48.681Z,19.83
2023-05-01T17:16:15.842Z,19.77
2023-05-01T17:18:42.947Z,19.70
2023-05-01T17:21:09.955Z,19.65
2023-05-01T17:23:37.064Z,19.66
2023-05-01T17:26:05.615Z,19.65
2023-05-01T17:28:32.655Z,19.65
2023-05-01T17:30:59.574Z,19.61
2023-05-01T17:33:29.638Z,19.56
2023-05-01T17:35:59.847Z,19.57
2023-05-01T17:38:27.188Z,19.48
2023-05-01T17:40:54.098Z,19.47
2023-05-01T17:43:21.121Z,19.44
2023-05-01T17:45:50.328Z,19.40
2023-05-01T17:48:19.811Z,19.33
2023-05-01T17:50:47.684Z,19.30
2023-05-01T17:53:14.659Z,19.21
2023-05-01T17:55:41.795Z,19.08
2023-05-01T17:58:10.515Z,19.08
2023-05-01T18:00:37.521Z,19.10
2023-05-01T18:03:05.174Z,19.08
2023-05-01T18:05:32.202Z,18.98
2023-05-01T18:07:59.163Z,18.93
2023-05-01T18:10:31.318Z,18.94
2023-05-01T18:12:58.673Z,18.79
2023-05-01T18:15:26.027Z,18.83
2023-05-01T18:17:53.317Z,18.82
2023-05-01T18:20:20.452Z,18.83
2023-05-01T18:22:54.922Z,18.87
2023-05-01T18:25:31.419Z,18.88
2023-05-01T18:27:59.052Z,18.84
2023-05-01T18:30:26.136Z,18.77
2023-05-01T18:32:54.040Z,18.84
2023-05-01T18:35:21.058Z,18.80
2023-05-01T18:37:48.018Z,18.69
2023-05-01T18:40:15.024Z,18.68
2023-05-01T18:42:42.440Z,18.73
2023-05-01T18:45:12.683Z,18.62
2023-05-01T18:47:39.880Z,18.63
2023-05-01T18:50:07.593Z,18.50
2023-05-01T18:52:37.250Z,18.43
2023-05-01T18:55:04.432Z,18.47
2023-05-01T18:57:31.911Z,18.48
2023-05-01T19:00:01.464Z,18.49
2023-05-01T19:02:28.705Z,18.44
2023-05-01T19:04:57.899Z,18.33
2023-05-01T19:07:26.859Z,18.29
2023-05-01T19:09:53.855Z,18.32
2023-05-01T19:12:21.050Z,18.37
2023-05-01T19:14:47.969Z,18.40
2023-05-01T19:17:15.060Z,18.43
2023-05-01T19:19:42.097Z,18.41
2023-05-01T19:22:09.062Z,18.34
2023-05-01T19:24:36.161Z,18.33
2023-05-01T19:27:03.601Z,18.31
2023-05-01T19:29:33.970Z,18.33
2023-05-01T19:32:01.103Z,18.29
2023-05-01T19:34:28.925Z,18.28
2023-05-01T19:37:00.504Z,18.27
2023-05-01T19:39:29.101Z,18.31
2023-05-01T19:41:56.148Z,18.31
2023-05-01T19:44:23.119Z,18.34
2023-05-01T19:46:49.991Z,18.24
2023-05-01T19:49:16.984Z,18.26
2023-05-01T19:51:45.693Z,18.26
2023-05-01T19:54:12.622Z,18.21
2023-05-01T19:56:39.671Z,18.21
2023-05-01T19:59:06.673Z,18.19
2023-05-01T20:01:33.723Z,18.17
2023-05-01T20:04:00.993Z,18.11
2023-05-01T20:06:28.124Z,18.05
2023-05-01T20:08:55.160Z,18.14
2023-05-01T20:11:22.055Z,18.13
2023-05-01T20:13:49.027Z,18.11
2023-05-01T20:16:16.118Z,18.08
2023-05-01T20:18:43.126Z,18.03
2023-05-01T20:21:13.194Z,18.06
2023-05-01T20:23:40.577Z,17.99
2023-05-01T20:26:07.628Z,17.91
2023-05-01T20:28:34.630Z,17.84
2023-05-01T20:31:03.746Z,17.89
2023-05-01T20:33:30.738Z,17.89
2023-05-01T20:35:58.070Z,17.86
2023-05-01T20:38:27.185Z,17.94
2023-05-01T20:40:54.064Z,17.88
2023-05-01T20:43:21.330Z,17.89
2023-05-01T20:45:48.321Z,17.90
2023-05-01T20:48:15.295Z,17.94
2023-05-01T20:50:43.953Z,17.95
2023-05-01T20:53:10.980Z,17.97
2023-05-01T20:55:37.887Z,17.96
2023-05-01T20:58:04.978Z,17.89
2023-05-01T21:00:32.232Z,17.87
2023-05-01T21:03:00.177Z,17.80
2023-05-01T21:05:27.671Z,17.82
2023-05-01T21:07:54.750Z,17.83
2023-05-01T21:10:21.685Z,17.81
2023-05-01T21:12:48.704Z,17.77
2023-05-01T21:15:17.789Z,17.76
2023-05-01T21:17:44.876Z,17.89
2023-05-01T21:20:15.743Z,17.88
2023-05-01T21:22:45.654Z,17.85
2023-05-01T21:25:16.147Z,17.75
2023-05-01T21:27:43.277Z,17.73
2023-05-01T21:30:17.638Z,17.68
2023-05-01T21:32:44.908Z,17.61
2023-05-01T21:35:16.204Z,17.58
2023-05-01T21:37:45.226Z,17.67
2023-05-01T21:40:14.126Z,17.71
2023-05-01T21:42:41.163Z,17.67
2023-05-01T21:45:10.000Z,17.53
2023-05-01T21:47:39.597Z,17.37
2023-05-01T21:50:12.968Z,17.23
2023-05-01T21:52:40.231Z,17.11
2023-05-01T21:55:09.519Z,16.81
2023-05-01T21:57:37.729Z,16.70
2023-05-01T22:00:11.756Z,16.61
2023-05-01T22:02:43.886Z,16.52
2023-05-01T22:05:13.134Z,16.34
2023-05-01T22:07:41.720Z,16.15
2023-05-01T22:10:11.819Z,16.06
2023-05-01T22:12:40.130Z,16.17
2023-05-01T22:15:09.034Z,16.09
2023-05-01T22:17:40.141Z,16.01
2023-05-01T22:20:07.882Z,15.81
2023-05-01T22:22:35.549Z,15.74
2023-05-01T22:25:04.157Z,15.60
2023-05-01T22:27:31.524Z,15.47
2023-05-01T22:29:58.628Z,15.38
2023-05-01T22:32:25.909Z,15.41
2023-05-01T22:34:52.925Z,15.30
2023-05-01T22:37:19.902Z,15.22
2023-05-01T22:39:47.011Z,15.04
2023-05-01T22:42:14.705Z,14.96
2023-05-01T22:44:41.794Z,14.90
2023-05-01T22:47:08.897Z,14.82
2023-05-01T22:49:36.668Z,14.80
2023-05-01T22:52:03.795Z,14.53
2023-05-01T22:54:30.827Z,14.48
2023-05-01T22:56:57.785Z,14.39
2023-05-01T22:59:24.796Z,14.42
2023-05-01T23:01:51.863Z,14.30
2023-05-01T23:04:18.993Z,14.14
2023-05-01T23:06:46.178Z,14.11
2023-05-01T23:09:13.449Z,14.02
2023-05-01T23:11:41.097Z,13.98
2023-05-01T23:14:08.065Z,13.97
2023-05-01T23:16:41.643Z,14.01
2023-05-01T23:19:23.544Z,14.01
2023-05-01T23:22:03.491Z,14.14
2023-05-01T23:24:35.482Z,14.28
2023-05-01T23:27:02.623Z,14.11
2023-05-01T23:29:29.612Z,14.04
2023-05-01T23:31:57.289Z,13.98
2023-05-01T23:34:24.392Z,14.05
2023-05-01T23:36:51.391Z,14.04
2023-05-01T23:39:18.628Z,14.05
2023-05-01T23:41:45.741Z,14.01
2023-05-01T23:44:12.618Z,13.96
2023-05-01T23:46:39.816Z,14.03
2023-05-01T23:49:06.912Z,14.17
2023-05-01T23:51:34.204Z,14.14
2023-05-01T23:54:01.539Z,14.11
2023-05-01T23:56:28.561Z,14.14
2023-05-01T23:58:55.574Z,14.24
